Time;durP1;ratioP1;P1;durP2;ratioP2;P2;SDS_P1;SDS_P2;PMS_P1;PMS_P2;Temp;Humidity;BMP_temperature;BMP_pressure;BME280_temperature;BME280_humidity;BME280_pressure;Samples;Min_cycle;Max_cycle;Signal;HPM_P1;HPM_P2
2021/12/09 00:14:52;;;;;;;0.40;0.40;;;2.80;93.30;1.30;100062.00;;;;31139790;28;20064;-75
2021/12/09 00:29:54;;;;;;;0.30;0.30;;;2.80;93.50;1.30;100060.00;;;;31144764;28;20050;-76
2021/12/09 00:44:55;;;;;;;0.30;0.30;;;2.70;93.50;1.20;100051.00;;;;31181593;28;20050;-76
2021/12/09 00:59:59;;;;;;;0.30;0.30;;;2.60;93.70;1.10;100055.00;;;;31157831;28;20133;-76
2021/12/09 01:15:00;;;;;;;0.30;0.30;;;2.60;93.70;1.10;100061.00;;;;31165938;28;20060;-75
2021/12/09 01:30:12;;;;;;;0.30;0.30;;;2.60;94.30;1.00;100079.00;;;;31097982;28;20073;-77
2021/12/09 01:45:14;;;;;;;0.30;0.30;;;2.50;94.00;1.00;100093.00;;;;31142407;28;20045;-74
2021/12/09 02:00:25;;;;;;;0.35;0.35;;;2.50;94.00;0.90;100101.00;;;;31148859;28;20049;-74
2021/12/09 02:15:28;;;;;;;0.35;0.35;;;2.40;94.10;1.10;100095.00;;;;31126751;28;20053;-76
2021/12/09 02:30:32;;;;;;;0.30;0.30;;;2.20;94.30;1.10;100083.00;;;;31145278;28;20045;-75
2021/12/09 02:45:37;;;;;;;0.40;0.40;;;2.60;94.60;1.10;100082.00;;;;31146116;28;20050;-75
2021/12/09 03:01:00;;;;;;;0.30;0.30;;;2.50;94.50;1.00;100097.00;;;;31130640;28;20072;-75
2021/12/09 03:16:03;;;;;;;0.30;0.30;;;2.40;94.10;0.90;100099.00;;;;31130625;28;20702;-73
2021/12/09 03:31:04;;;;;;;0.40;0.40;;;2.40;94.60;0.80;100115.00;;;;31153887;28;20529;-75
2021/12/09 03:46:06;;;;;;;0.30;0.30;;;2.30;94.60;0.70;100132.00;;;;31134205;28;20092;-74
2021/12/09 04:17:49;;;;;;;0.30;0.30;;;2.10;94.60;0.60;100116.00;;;;31132928;28;20103;-74
2021/12/09 04:32:54;;;;;;;0.40;0.40;;;2.00;95.20;0.60;100120.00;;;;31146804;28;20062;-74
2021/12/09 04:47:57;;;;;;;0.40;0.40;;;2.10;95.20;0.50;100130.00;;;;31156945;28;20170;-74
2021/12/09 05:03:17;;;;;;;0.30;0.30;;;1.90;95.40;0.40;100133.00;;;;31128955;28;20049;-74
2021/12/09 05:18:19;;;;;;;0.30;0.30;;;1.90;94.90;0.30;100142.00;;;;31147738;28;20708;-73
2021/12/09 05:33:20;;;;;;;0.30;0.30;;;1.50;95.20;0.30;100137.00;;;;31080227;28;20157;-73
2021/12/09 05:48:23;;;;;;;0.30;0.30;;;1.80;94.90;0.30;100163.00;;;;31102062;28;20037;-73
2021/12/09 06:03:25;;;;;;;0.20;0.20;;;1.80;94.90;0.20;100168.00;;;;31144983;28;20083;-74
2021/12/09 06:18:27;;;;;;;0.30;0.30;;;1.80;94.90;0.20;100169.00;;;;31151762;28;20540;-73
2021/12/09 06:33:29;;;;;;;0.32;0.32;;;1.80;95.10;0.30;100173.00;;;;31128593;28;20049;-73
2021/12/09 06:48:33;;;;;;;0.30;0.30;;;1.80;95.00;0.20;100192.00;;;;31157454;28;20132;-73
2021/12/09 07:03:38;;;;;;;0.50;0.50;;;1.70;95.00;0.20;100194.00;;;;31135507;28;20092;-73
2021/12/09 07:18:41;;;;;;;0.30;0.30;;;1.70;95.10;0.10;100187.00;;;;31141755;28;20503;-74
2021/12/09 07:33:42;;;;;;;0.45;0.45;;;1.70;95.10;0.10;100212.00;;;;31146257;28;20049;-73
2021/12/09 07:48:49;;;;;;;0.20;0.20;;;1.70;95.80;0.10;100208.00;;;;31168488;28;20053;-74
2021/12/09 08:04:23;;;;;;;0.20;0.20;;;1.70;95.30;0.30;100211.00;;;;31130310;28;20137;-72
2021/12/09 08:19:25;;;;;;;0.30;0.30;;;1.90;95.50;0.50;100218.00;;;;31125154;28;20065;-72
2021/12/09 08:34:26;;;;;;;0.40;0.40;;;2.00;95.20;0.70;100226.00;;;;31117590;28;20832;-72
2021/12/09 08:49:27;;;;;;;0.32;0.32;;;2.30;94.70;1.10;100230.00;;;;31120827;28;20697;-72
2021/12/09 09:04:31;;;;;;;0.50;0.50;;;2.50;95.00;1.50;100248.00;;;;31157441;28;20293;-73
2021/12/09 09:19:34;;;;;;;0.30;0.30;;;3.10;94.00;1.90;100262.00;;;;31160180;28;20050;-73
2021/12/09 09:34:35;;;;;;;0.30;0.30;;;3.50;93.90;2.30;100268.00;;;;31158930;28;20044;-75
2021/12/09 09:49:39;;;;;;;0.30;0.30;;;3.60;94.10;2.80;100267.00;;;;31136890;28;20124;-77
2021/12/09 10:04:57;;;;;;;0.45;0.45;;;4.00;94.20;3.00;100256.00;;;;31127734;28;20668;-78
2021/12/09 10:20:05;;;;;;;0.30;0.30;;;4.30;93.50;3.10;100254.00;;;;31135283;28;20487;-78
2021/12/09 10:35:16;;;;;;;0.20;0.20;;;4.30;94.00;3.20;100254.00;;;;31127557;28;20052;-77
2021/12/09 11:05:43;;;;;;;0.30;0.30;;;4.40;93.70;3.40;100244.00;;;;31139381;28;20045;-79
2021/12/09 11:20:45;;;;;;;0.20;0.20;;;4.80;93.30;3.60;100230.00;;;;31147489;28;20053;-79
2021/12/09 11:35:46;;;;;;;0.30;0.30;;;4.80;93.90;3.80;100238.00;;;;31098088;28;20060;-77
2021/12/09 11:50:51;;;;;;;0.25;0.25;;;5.00;93.60;3.80;100231.00;;;;31143258;28;20501;-78
2021/12/09 12:06:49;;;;;;;0.20;0.20;;;5.50;93.70;3.80;100214.00;;;;31136032;28;20072;-78
2021/12/09 12:22:04;;;;;;;0.20;0.20;;;5.10;92.90;3.80;100202.00;;;;31150763;28;20556;-78
2021/12/09 12:37:12;;;;;;;0.30;0.30;;;5.10;93.10;3.90;100210.00;;;;31107323;28;20056;-77
2021/12/09 12:52:27;;;;;;;0.30;0.30;;;5.30;92.90;4.00;100206.00;;;;31156531;28;20051;-78
2021/12/09 13:23:27;;;;;;;0.30;0.30;;;5.30;92.90;4.00;100193.00;;;;31154098;28;20055;-78
2021/12/09 14:09:19;;;;;;;0.30;0.30;;;5.30;93.20;4.00;100197.00;;;;31156098;28;20041;-77
2021/12/09 14:24:27;;;;;;;0.73;0.73;;;5.30;93.30;4.00;100192.00;;;;31140052;28;20049;-77
2021/12/09 14:39:28;;;;;;;0.22;0.22;;;5.20;93.30;4.00;100195.00;;;;31140049;28;20925;-77
2021/12/09 14:54:29;;;;;;;0.28;0.28;;;5.30;93.40;4.00;100214.00;;;;31147515;28;20493;-76
2021/12/09 15:09:32;;;;;;;0.65;0.65;;;5.30;93.80;4.00;100191.00;;;;31146180;28;20065;-76
2021/12/09 15:24:39;;;;;;;0.25;0.25;;;5.20;94.30;3.90;100187.00;;;;31125314;28;20069;-76
2021/12/09 15:39:47;;;;;;;0.40;0.40;;;5.20;94.30;3.90;100176.00;;;;31135700;28;20052;-76
2021/12/09 15:55:00;;;;;;;0.30;0.30;;;5.10;94.70;3.90;100178.00;;;;31150935;28;20103;-76
2021/12/09 16:10:05;;;;;;;0.30;0.30;;;5.20;94.50;3.90;100174.00;;;;31161477;28;20073;-77
2021/12/09 16:25:13;;;;;;;0.25;0.25;;;5.20;95.60;3.90;100167.00;;;;31136536;28;20046;-78
2021/12/09 16:40:24;;;;;;;0.30;0.30;;;5.20;94.70;4.00;100171.00;;;;31123474;28;20049;-78
2021/12/09 16:55:25;;;;;;;0.63;0.63;;;5.30;94.70;4.00;100157.00;;;;31150157;28;20536;-78
2021/12/09 17:10:29;;;;;;;0.20;0.20;;;5.30;94.70;4.00;100171.00;;;;31160895;28;20061;-78
2021/12/09 17:25:34;;;;;;;0.20;0.20;;;5.30;94.70;4.10;100171.00;;;;31138061;28;20165;-78
2021/12/09 17:40:35;;;;;;;0.20;0.20;;;6.60;95.30;4.30;100174.00;;;;31141178;28;20132;-79
2021/12/09 17:55:38;;;;;;;0.40;0.40;;;5.50;94.70;4.30;100160.00;;;;31088630;28;20050;-78
2021/12/09 18:10:46;;;;;;;0.25;0.25;;;5.60;94.70;4.30;100155.00;;;;31087264;28;20043;-79
2021/12/09 18:25:49;;;;;;;0.30;0.30;;;5.60;94.60;4.40;100161.00;;;;31143427;28;20045;-78
2021/12/09 18:40:56;;;;;;;0.20;0.20;;;5.30;95.10;4.40;100152.00;;;;31124557;28;20041;-78
2021/12/09 18:55:57;;;;;;;0.30;0.30;;;5.70;94.60;4.50;100147.00;;;;31116254;28;20422;-78
2021/12/09 19:11:00;;;;;;;0.32;0.32;;;5.70;94.80;4.50;100150.00;;;;31154111;28;20452;-78
2021/12/09 19:26:04;;;;;;;0.20;0.20;;;5.70;95.70;4.50;100127.00;;;;31136203;28;20441;-79
2021/12/09 19:41:07;;;;;;;0.30;0.30;;;5.70;94.80;4.50;100116.00;;;;31134806;28;20045;-78
2021/12/09 19:56:09;;;;;;;0.35;0.35;;;5.70;94.70;4.50;100106.00;;;;31144520;28;20045;-79
2021/12/09 20:11:24;;;;;;;0.20;0.20;;;5.60;94.60;4.50;100077.00;;;;31118978;28;20057;-79
2021/12/09 20:26:29;;;;;;;0.30;0.30;;;5.60;94.80;4.40;100049.00;;;;31141857;28;20049;-78
2021/12/09 20:41:31;;;;;;;0.93;0.93;;;5.70;94.60;4.50;100031.00;;;;31146143;28;20069;-79
2021/12/09 20:56:31;;;;;;;0.20;0.20;;;5.70;94.50;4.50;100018.00;;;;31135158;28;20057;-79
2021/12/09 21:11:34;;;;;;;0.20;0.20;;;5.80;94.30;4.60;100004.00;;;;31142563;28;20136;-79
2021/12/09 21:26:35;;;;;;;0.88;0.88;;;5.80;94.30;4.60;99990.00;;;;31147648;28;20055;-79
2021/12/09 21:41:36;;;;;;;0.20;0.20;;;5.80;94.20;4.60;99962.00;;;;31150006;28;20157;-79
2021/12/09 21:56:39;;;;;;;0.30;0.30;;;5.80;94.10;4.70;99949.00;;;;31127722;28;20160;-79
2021/12/09 22:11:42;;;;;;;0.20;0.20;;;5.80;94.00;4.70;99916.00;;;;31125507;28;20311;-79
2021/12/09 22:26:45;;;;;;;0.30;0.30;;;5.90;93.80;4.70;99897.00;;;;31146639;28;20045;-80
2021/12/09 22:41:47;;;;;;;0.40;0.40;;;5.80;94.20;4.70;99875.00;;;;31122858;28;20068;-79
2021/12/09 22:56:54;;;;;;;0.40;0.40;;;5.90;93.80;4.50;99846.00;;;;31141735;28;20083;-79
2021/12/09 23:11:58;;;;;;;0.30;0.30;;;5.50;93.40;4.30;99823.00;;;;31217953;28;20090;-79
2021/12/09 23:27:00;;;;;;;0.30;0.30;;;5.50;93.40;4.10;99779.00;;;;31127773;28;20042;-79
2021/12/09 23:42:01;;;;;;;0.50;0.50;;;5.30;93.80;4.00;99750.00;;;;31108862;28;20045;-79
2021/12/09 23:57:08;;;;;;;0.30;0.30;;;5.20;93.60;3.70;99716.00;;;;31164266;28;20501;-79
